sensor_id;sensor_type;location;lat;lon;timestamp;P1;durP1;ratioP1;P2;durP2;ratioP2
3959;SDS011;1994;48.640;8.894;2023-03-05T00:00:45;31.13;;;15.17;;
3959;SDS011;1994;48.640;8.894;2023-03-05T00:03:11;32.23;;;15.00;;
3959;SDS011;1994;48.640;8.894;2023-03-05T00:05:37;29.20;;;13.97;;
3959;SDS011;1994;48.640;8.894;2023-03-05T00:08:03;29.60;;;14.33;;
3959;SDS011;1994;48.640;8.894;2023-03-05T00:10:29;31.47;;;13.47;;
3959;SDS011;1994;48.640;8.894;2023-03-05T00:12:54;25.67;;;13.33;;
3959;SDS011;1994;48.640;8.894;2023-03-05T00:15:20;28.73;;;13.07;;
3959;SDS011;1994;48.640;8.894;2023-03-05T00:17:46;28.43;;;13.87;;
3959;SDS011;1994;48.640;8.894;2023-03-05T00:20:12;24.40;;;13.73;;
3959;SDS011;1994;48.640;8.894;2023-03-05T00:22:38;31.87;;;13.70;;
3959;SDS011;1994;48.640;8.894;2023-03-05T00:25:04;29.60;;;14.07;;
3959;SDS011;1994;48.640;8.894;2023-03-05T00:27:33;28.33;;;14.50;;
3959;SDS011;1994;48.640;8.894;2023-03-05T00:29:59;23.07;;;14.07;;
3959;SDS011;1994;48.640;8.894;2023-03-05T00:32:24;26.10;;;13.53;;
3959;SDS011;1994;48.640;8.894;2023-03-05T00:34:53;29.37;;;14.93;;
3959;SDS011;1994;48.640;8.894;2023-03-05T00:37:18;27.10;;;13.10;;
3959;SDS011;1994;48.640;8.894;2023-03-05T00:39:47;27.90;;;14.00;;
3959;SDS011;1994;48.640;8.894;2023-03-05T00:42:13;28.10;;;15.10;;
3959;SDS011;1994;48.640;8.894;2023-03-05T00:44:38;26.43;;;14.23;;
3959;SDS011;1994;48.640;8.894;2023-03-05T00:47:04;30.73;;;14.13;;
3959;SDS011;1994;48.640;8.894;2023-03-05T00:49:30;19.53;;;12.80;;
3959;SDS011;1994;48.640;8.894;2023-03-05T00:51:58;22.20;;;13.63;;
3959;SDS011;1994;48.640;8.894;2023-03-05T00:54:24;26.93;;;13.37;;
3959;SDS011;1994;48.640;8.894;2023-03-05T00:56:50;27.03;;;14.10;;
3959;SDS011;1994;48.640;8.894;2023-03-05T00:59:15;36.43;;;13.70;;
3959;SDS011;1994;48.640;8.894;2023-03-05T01:01:41;24.23;;;13.10;;
3959;SDS011;1994;48.640;8.894;2023-03-05T01:04:07;35.40;;;14.03;;
3959;SDS011;1994;48.640;8.894;2023-03-05T01:06:33;27.80;;;14.63;;
3959;SDS011;1994;48.640;8.894;2023-03-05T01:08:58;27.90;;;12.97;;
3959;SDS011;1994;48.640;8.894;2023-03-05T01:11:24;26.30;;;13.30;;
3959;SDS011;1994;48.640;8.894;2023-03-05T01:13:50;26.73;;;13.60;;
3959;SDS011;1994;48.640;8.894;2023-03-05T01:16:16;32.20;;;14.93;;
3959;SDS011;1994;48.640;8.894;2023-03-05T01:18:42;27.60;;;13.20;;
3959;SDS011;1994;48.640;8.894;2023-03-05T01:21:08;27.90;;;13.43;;
3959;SDS011;1994;48.640;8.894;2023-03-05T01:23:34;26.60;;;12.83;;
3959;SDS011;1994;48.640;8.894;2023-03-05T01:26:01;33.73;;;13.77;;
3959;SDS011;1994;48.640;8.894;2023-03-05T01:28:27;27.50;;;12.00;;
3959;SDS011;1994;48.640;8.894;2023-03-05T01:30:54;36.80;;;12.60;;
3959;SDS011;1994;48.640;8.894;2023-03-05T01:33:20;26.10;;;13.27;;
3959;SDS011;1994;48.640;8.894;2023-03-05T01:35:50;30.50;;;15.23;;
3959;SDS011;1994;48.640;8.894;2023-03-05T01:38:16;24.23;;;13.53;;
3959;SDS011;1994;48.640;8.894;2023-03-05T01:40:42;30.07;;;13.73;;
3959;SDS011;1994;48.640;8.894;2023-03-05T01:45:38;29.03;;;13.67;;
3959;SDS011;1994;48.640;8.894;2023-03-05T01:48:41;25.27;;;12.87;;
3959;SDS011;1994;48.640;8.894;2023-03-05T01:51:13;25.70;;;14.10;;
3959;SDS011;1994;48.640;8.894;2023-03-05T01:53:41;29.37;;;14.13;;
3959;SDS011;1994;48.640;8.894;2023-03-05T01:56:07;26.43;;;12.90;;
3959;SDS011;1994;48.640;8.894;2023-03-05T01:58:33;32.37;;;12.43;;
3959;SDS011;1994;48.640;8.894;2023-03-05T02:01:03;26.70;;;12.93;;
3959;SDS011;1994;48.640;8.894;2023-03-05T02:03:29;26.97;;;13.27;;
3959;SDS011;1994;48.640;8.894;2023-03-05T02:05:57;25.33;;;13.00;;
3959;SDS011;1994;48.640;8.894;2023-03-05T02:08:23;23.40;;;12.73;;
3959;SDS011;1994;48.640;8.894;2023-03-05T02:10:53;26.90;;;12.87;;
3959;SDS011;1994;48.640;8.894;2023-03-05T02:13:21;34.77;;;15.23;;
3959;SDS011;1994;48.640;8.894;2023-03-05T02:15:51;30.93;;;14.57;;
3959;SDS011;1994;48.640;8.894;2023-03-05T02:18:25;30.70;;;13.77;;
3959;SDS011;1994;48.640;8.894;2023-03-05T02:23:22;27.10;;;13.43;;
3959;SDS011;1994;48.640;8.894;2023-03-05T02:25:54;32.83;;;15.63;;
3959;SDS011;1994;48.640;8.894;2023-03-05T02:28:29;25.43;;;13.97;;
3959;SDS011;1994;48.640;8.894;2023-03-05T02:31:18;34.30;;;14.93;;
3959;SDS011;1994;48.640;8.894;2023-03-05T02:33:46;41.57;;;16.40;;
3959;SDS011;1994;48.640;8.894;2023-03-05T02:36:12;31.70;;;15.93;;
3959;SDS011;1994;48.640;8.894;2023-03-05T02:38:39;35.47;;;18.27;;
3959;SDS011;1994;48.640;8.894;2023-03-05T02:41:06;31.93;;;17.37;;
3959;SDS011;1994;48.640;8.894;2023-03-05T02:43:32;31.23;;;13.83;;
3959;SDS011;1994;48.640;8.894;2023-03-05T02:45:58;33.60;;;15.30;;
3959;SDS011;1994;48.640;8.894;2023-03-05T02:48:24;32.23;;;16.50;;
3959;SDS011;1994;48.640;8.894;2023-03-05T02:50:49;28.77;;;14.27;;
3959;SDS011;1994;48.640;8.894;2023-03-05T02:53:15;31.00;;;13.70;;
3959;SDS011;1994;48.640;8.894;2023-03-05T02:55:41;25.27;;;13.80;;
3959;SDS011;1994;48.640;8.894;2023-03-05T02:58:11;30.03;;;14.20;;
3959;SDS011;1994;48.640;8.894;2023-03-05T03:00:37;24.30;;;12.90;;
3959;SDS011;1994;48.640;8.894;2023-03-05T03:03:03;31.73;;;14.40;;
3959;SDS011;1994;48.640;8.894;2023-03-05T03:05:29;29.33;;;15.03;;
3959;SDS011;1994;48.640;8.894;2023-03-05T03:07:54;27.13;;;13.27;;
3959;SDS011;1994;48.640;8.894;2023-03-05T03:10:23;27.80;;;14.23;;
3959;SDS011;1994;48.640;8.894;2023-03-05T03:12:48;28.23;;;13.37;;
3959;SDS011;1994;48.640;8.894;2023-03-05T03:15:16;33.23;;;14.97;;
3959;SDS011;1994;48.640;8.894;2023-03-05T03:17:47;24.60;;;13.60;;
3959;SDS011;1994;48.640;8.894;2023-03-05T03:20:14;29.40;;;14.53;;
3959;SDS011;1994;48.640;8.894;2023-03-05T03:22:42;32.77;;;13.30;;
3959;SDS011;1994;48.640;8.894;2023-03-05T03:25:10;33.27;;;12.73;;
3959;SDS011;1994;48.640;8.894;2023-03-05T03:27:45;24.40;;;14.30;;
3959;SDS011;1994;48.640;8.894;2023-03-05T03:30:11;28.17;;;14.37;;
3959;SDS011;1994;48.640;8.894;2023-03-05T03:32:38;39.23;;;13.40;;
3959;SDS011;1994;48.640;8.894;2023-03-05T03:35:07;29.03;;;13.50;;
3959;SDS011;1994;48.640;8.894;2023-03-05T03:37:34;32.03;;;13.10;;
3959;SDS011;1994;48.640;8.894;2023-03-05T03:40:00;40.90;;;16.00;;
3959;SDS011;1994;48.640;8.894;2023-03-05T03:42:26;33.47;;;15.40;;
3959;SDS011;1994;48.640;8.894;2023-03-05T03:44:52;23.63;;;12.57;;
3959;SDS011;1994;48.640;8.894;2023-03-05T03:47:18;30.67;;;14.10;;
3959;SDS011;1994;48.640;8.894;2023-03-05T03:49:43;28.20;;;13.10;;
3959;SDS011;1994;48.640;8.894;2023-03-05T03:52:09;25.97;;;12.93;;
3959;SDS011;1994;48.640;8.894;2023-03-05T03:54:38;21.77;;;11.70;;
3959;SDS011;1994;48.640;8.894;2023-03-05T03:57:04;24.77;;;13.60;;
3959;SDS011;1994;48.640;8.894;2023-03-05T03:59:30;28.30;;;15.10;;
3959;SDS011;1994;48.640;8.894;2023-03-05T04:01:56;27.50;;;16.60;;
3959;SDS011;1994;48.640;8.894;2023-03-05T04:04:24;28.80;;;14.20;;
3959;SDS011;1994;48.640;8.894;2023-03-05T04:06:50;28.63;;;14.33;;
3959;SDS011;1994;48.640;8.894;2023-03-05T04:09:16;29.87;;;14.53;;
3959;SDS011;1994;48.640;8.894;2023-03-05T04:11:42;28.90;;;14.10;;
3959;SDS011;1994;48.640;8.894;2023-03-05T04:14:07;31.20;;;14.27;;
3959;SDS011;1994;48.640;8.894;2023-03-05T04:16:36;33.23;;;13.33;;
3959;SDS011;1994;48.640;8.894;2023-03-05T04:19:02;27.47;;;14.00;;
3959;SDS011;1994;48.640;8.894;2023-03-05T04:21:27;29.07;;;15.40;;
3959;SDS011;1994;48.640;8.894;2023-03-05T04:23:53;32.73;;;12.33;;
3959;SDS011;1994;48.640;8.894;2023-03-05T04:26:22;27.00;;;13.80;;
3959;SDS011;1994;48.640;8.894;2023-03-05T04:28:48;29.73;;;14.60;;
3959;SDS011;1994;48.640;8.894;2023-03-05T04:31:14;31.87;;;13.37;;
3959;SDS011;1994;48.640;8.894;2023-03-05T04:33:39;25.53;;;12.90;;
3959;SDS011;1994;48.640;8.894;2023-03-05T04:36:05;35.13;;;13.83;;
3959;SDS011;1994;48.640;8.894;2023-03-05T04:38:31;47.13;;;15.07;;
3959;SDS011;1994;48.640;8.894;2023-03-05T04:40:57;28.93;;;14.13;;
3959;SDS011;1994;48.640;8.894;2023-03-05T04:43:23;24.13;;;13.03;;
3959;SDS011;1994;48.640;8.894;2023-03-05T04:45:48;27.33;;;12.60;;
3959;SDS011;1994;48.640;8.894;2023-03-05T04:48:14;31.53;;;14.80;;
3959;SDS011;1994;48.640;8.894;2023-03-05T04:50:40;23.50;;;13.77;;
3959;SDS011;1994;48.640;8.894;2023-03-05T04:53:06;31.00;;;14.43;;
3959;SDS011;1994;48.640;8.894;2023-03-05T04:55:32;20.87;;;12.30;;
3959;SDS011;1994;48.640;8.894;2023-03-05T04:57:58;26.57;;;13.10;;
3959;SDS011;1994;48.640;8.894;2023-03-05T05:00:23;32.83;;;14.07;;
3959;SDS011;1994;48.640;8.894;2023-03-05T05:02:50;33.27;;;15.40;;
3959;SDS011;1994;48.640;8.894;2023-03-05T05:05:21;34.43;;;14.77;;
3959;SDS011;1994;48.640;8.894;2023-03-05T05:07:55;28.90;;;13.63;;
3959;SDS011;1994;48.640;8.894;2023-03-05T05:10:21;31.20;;;15.20;;
3959;SDS011;1994;48.640;8.894;2023-03-05T05:12:48;28.00;;;12.57;;
3959;SDS011;1994;48.640;8.894;2023-03-05T05:15:14;25.53;;;13.30;;
3959;SDS011;1994;48.640;8.894;2023-03-05T05:17:40;27.00;;;12.20;;
3959;SDS011;1994;48.640;8.894;2023-03-05T05:20:12;28.27;;;13.77;;
3959;SDS011;1994;48.640;8.894;2023-03-05T05:22:40;34.17;;;14.20;;
3959;SDS011;1994;48.640;8.894;2023-03-05T05:25:06;26.40;;;12.47;;
3959;SDS011;1994;48.640;8.894;2023-03-05T05:27:34;26.00;;;13.47;;
3959;SDS011;1994;48.640;8.894;2023-03-05T05:30:00;31.97;;;15.60;;
3959;SDS011;1994;48.640;8.894;2023-03-05T05:32:30;28.63;;;13.90;;
3959;SDS011;1994;48.640;8.894;2023-03-05T05:34:57;30.30;;;14.73;;
3959;SDS011;1994;48.640;8.894;2023-03-05T05:37:23;26.70;;;13.40;;
3959;SDS011;1994;48.640;8.894;2023-03-05T05:39:50;28.57;;;13.83;;
3959;SDS011;1994;48.640;8.894;2023-03-05T05:42:16;29.40;;;12.50;;
3959;SDS011;1994;48.640;8.894;2023-03-05T05:44:44;31.33;;;13.40;;
3959;SDS011;1994;48.640;8.894;2023-03-05T05:47:11;32.47;;;15.17;;
3959;SDS011;1994;48.640;8.894;2023-03-05T05:49:38;26.23;;;13.27;;
3959;SDS011;1994;48.640;8.894;2023-03-05T05:52:04;29.33;;;14.73;;
3959;SDS011;1994;48.640;8.894;2023-03-05T05:54:29;32.33;;;13.50;;
3959;SDS011;1994;48.640;8.894;2023-03-05T05:56:55;26.33;;;14.47;;
3959;SDS011;1994;48.640;8.894;2023-03-05T05:59:21;36.37;;;14.50;;
3959;SDS011;1994;48.640;8.894;2023-03-05T06:01:47;24.80;;;12.50;;
3959;SDS011;1994;48.640;8.894;2023-03-05T06:04:12;27.70;;;15.53;;
3959;SDS011;1994;48.640;8.894;2023-03-05T06:06:38;30.03;;;14.50;;
3959;SDS011;1994;48.640;8.894;2023-03-05T06:09:04;28.17;;;15.43;;
3959;SDS011;1994;48.640;8.894;2023-03-05T06:11:30;26.10;;;16.13;;
3959;SDS011;1994;48.640;8.894;2023-03-05T06:13:56;25.60;;;12.13;;
3959;SDS011;1994;48.640;8.894;2023-03-05T06:16:26;33.93;;;14.70;;
3959;SDS011;1994;48.640;8.894;2023-03-05T06:18:55;30.80;;;12.73;;
3959;SDS011;1994;48.640;8.894;2023-03-05T06:21:21;25.80;;;13.60;;
3959;SDS011;1994;48.640;8.894;2023-03-05T06:23:47;23.00;;;13.80;;
3959;SDS011;1994;48.640;8.894;2023-03-05T06:26:15;36.37;;;15.30;;
3959;SDS011;1994;48.640;8.894;2023-03-05T06:28:44;29.00;;;13.13;;
3959;SDS011;1994;48.640;8.894;2023-03-05T06:31:11;31.90;;;14.77;;
3959;SDS011;1994;48.640;8.894;2023-03-05T06:33:39;30.87;;;14.43;;
3959;SDS011;1994;48.640;8.894;2023-03-05T06:36:07;41.10;;;14.70;;
3959;SDS011;1994;48.640;8.894;2023-03-05T06:38:36;28.47;;;13.83;;
3959;SDS011;1994;48.640;8.894;2023-03-05T06:41:04;21.73;;;11.70;;
3959;SDS011;1994;48.640;8.894;2023-03-05T06:43:36;24.30;;;12.63;;
3959;SDS011;1994;48.640;8.894;2023-03-05T06:46:38;31.80;;;14.07;;
3959;SDS011;1994;48.640;8.894;2023-03-05T06:49:01;33.63;;;14.07;;
3959;SDS011;1994;48.640;8.894;2023-03-05T06:51:35;29.00;;;15.00;;
3959;SDS011;1994;48.640;8.894;2023-03-05T06:54:07;34.57;;;15.17;;
3959;SDS011;1994;48.640;8.894;2023-03-05T06:56:38;34.67;;;14.47;;
3959;SDS011;1994;48.640;8.894;2023-03-05T06:59:10;30.27;;;14.27;;
3959;SDS011;1994;48.640;8.894;2023-03-05T07:01:41;30.07;;;14.00;;
3959;SDS011;1994;48.640;8.894;2023-03-05T07:04:08;25.30;;;12.13;;
3959;SDS011;1994;48.640;8.894;2023-03-05T07:06:36;30.30;;;12.20;;
3959;SDS011;1994;48.640;8.894;2023-03-05T07:09:06;29.33;;;14.93;;
3959;SDS011;1994;48.640;8.894;2023-03-05T07:11:37;30.03;;;14.33;;
3959;SDS011;1994;48.640;8.894;2023-03-05T07:14:03;27.07;;;13.23;;
3959;SDS011;1994;48.640;8.894;2023-03-05T07:16:32;23.43;;;12.20;;
3959;SDS011;1994;48.640;8.894;2023-03-05T07:19:00;21.67;;;11.33;;
3959;SDS011;1994;48.640;8.894;2023-03-05T07:21:30;35.97;;;15.23;;
3959;SDS011;1994;48.640;8.894;2023-03-05T07:23:58;30.67;;;13.30;;
3959;SDS011;1994;48.640;8.894;2023-03-05T07:26:26;29.30;;;15.10;;
3959;SDS011;1994;48.640;8.894;2023-03-05T07:28:55;32.50;;;14.27;;
3959;SDS011;1994;48.640;8.894;2023-03-05T07:31:24;24.30;;;14.40;;
3959;SDS011;1994;48.640;8.894;2023-03-05T07:33:57;33.53;;;14.43;;
3959;SDS011;1994;48.640;8.894;2023-03-05T07:36:26;25.97;;;14.17;;
3959;SDS011;1994;48.640;8.894;2023-03-05T07:38:52;32.07;;;16.13;;
3959;SDS011;1994;48.640;8.894;2023-03-05T07:41:18;25.37;;;13.63;;
3959;SDS011;1994;48.640;8.894;2023-03-05T07:43:46;26.00;;;13.90;;
3959;SDS011;1994;48.640;8.894;2023-03-05T07:46:14;26.37;;;12.07;;
3959;SDS011;1994;48.640;8.894;2023-03-05T07:48:42;24.03;;;14.97;;
3959;SDS011;1994;48.640;8.894;2023-03-05T07:51:12;25.70;;;12.73;;
3959;SDS011;1994;48.640;8.894;2023-03-05T07:53:41;28.10;;;14.37;;
3959;SDS011;1994;48.640;8.894;2023-03-05T07:56:08;31.80;;;12.40;;
3959;SDS011;1994;48.640;8.894;2023-03-05T07:58:34;35.70;;;13.13;;
3959;SDS011;1994;48.640;8.894;2023-03-05T08:01:02;31.83;;;12.10;;
3959;SDS011;1994;48.640;8.894;2023-03-05T08:03:28;24.23;;;11.90;;
3959;SDS011;1994;48.640;8.894;2023-03-05T08:05:54;25.87;;;14.03;;
3959;SDS011;1994;48.640;8.894;2023-03-05T08:08:19;28.53;;;14.77;;
3959;SDS011;1994;48.640;8.894;2023-03-05T08:10:45;26.33;;;13.67;;
3959;SDS011;1994;48.640;8.894;2023-03-05T08:13:11;24.93;;;13.13;;
3959;SDS011;1994;48.640;8.894;2023-03-05T08:15:37;20.77;;;11.83;;
3959;SDS011;1994;48.640;8.894;2023-03-05T08:18:03;30.70;;;13.93;;
3959;SDS011;1994;48.640;8.894;2023-03-05T08:20:35;23.07;;;13.77;;
3959;SDS011;1994;48.640;8.894;2023-03-05T08:23:01;24.63;;;11.00;;
3959;SDS011;1994;48.640;8.894;2023-03-05T08:25:27;23.67;;;10.80;;
3959;SDS011;1994;48.640;8.894;2023-03-05T08:27:53;25.70;;;12.50;;
3959;SDS011;1994;48.640;8.894;2023-03-05T08:30:19;30.00;;;12.80;;
3959;SDS011;1994;48.640;8.894;2023-03-05T08:32:47;22.70;;;12.50;;
3959;SDS011;1994;48.640;8.894;2023-03-05T08:35:13;26.07;;;12.70;;
3959;SDS011;1994;48.640;8.894;2023-03-05T08:37:39;28.17;;;12.70;;
3959;SDS011;1994;48.640;8.894;2023-03-05T08:40:05;22.67;;;12.40;;
3959;SDS011;1994;48.640;8.894;2023-03-05T08:42:31;27.07;;;11.63;;
3959;SDS011;1994;48.640;8.894;2023-03-05T08:44:57;23.13;;;12.13;;
3959;SDS011;1994;48.640;8.894;2023-03-05T08:47:23;20.83;;;13.20;;
3959;SDS011;1994;48.640;8.894;2023-03-05T08:49:50;28.27;;;13.07;;
3959;SDS011;1994;48.640;8.894;2023-03-05T08:52:19;22.33;;;11.90;;
3959;SDS011;1994;48.640;8.894;2023-03-05T08:54:46;24.33;;;11.30;;
3959;SDS011;1994;48.640;8.894;2023-03-05T08:57:12;20.30;;;13.40;;
3959;SDS011;1994;48.640;8.894;2023-03-05T08:59:38;23.87;;;12.20;;
3959;SDS011;1994;48.640;8.894;2023-03-05T09:02:03;21.97;;;11.50;;
3959;SDS011;1994;48.640;8.894;2023-03-05T09:04:29;21.87;;;13.13;;
3959;SDS011;1994;48.640;8.894;2023-03-05T09:07:05;22.17;;;11.40;;
3959;SDS011;1994;48.640;8.894;2023-03-05T09:09:31;19.30;;;10.80;;
3959;SDS011;1994;48.640;8.894;2023-03-05T09:11:58;17.30;;;10.43;;
3959;SDS011;1994;48.640;8.894;2023-03-05T09:14:24;22.80;;;11.77;;
3959;SDS011;1994;48.640;8.894;2023-03-05T09:16:52;18.90;;;10.77;;
3959;SDS011;1994;48.640;8.894;2023-03-05T09:19:21;25.10;;;11.37;;
3959;SDS011;1994;48.640;8.894;2023-03-05T09:21:47;27.90;;;10.67;;
3959;SDS011;1994;48.640;8.894;2023-03-05T09:24:16;22.33;;;10.10;;
3959;SDS011;1994;48.640;8.894;2023-03-05T09:26:42;23.30;;;11.00;;
3959;SDS011;1994;48.640;8.894;2023-03-05T09:29:08;19.87;;;10.60;;
3959;SDS011;1994;48.640;8.894;2023-03-05T09:31:37;24.20;;;10.50;;
3959;SDS011;1994;48.640;8.894;2023-03-05T09:34:03;18.90;;;9.37;;
3959;SDS011;1994;48.640;8.894;2023-03-05T09:36:34;17.87;;;10.20;;
3959;SDS011;1994;48.640;8.894;2023-03-05T09:39:00;15.50;;;8.97;;
3959;SDS011;1994;48.640;8.894;2023-03-05T09:47:18;20.63;;;9.60;;
3959;SDS011;1994;48.640;8.894;2023-03-05T09:53:12;15.00;;;9.27;;
3959;SDS011;1994;48.640;8.894;2023-03-05T09:56:18;14.37;;;8.70;;
3959;SDS011;1994;48.640;8.894;2023-03-05T09:58:54;15.53;;;9.00;;
3959;SDS011;1994;48.640;8.894;2023-03-05T10:01:52;16.47;;;8.67;;
3959;SDS011;1994;48.640;8.894;2023-03-05T10:04:53;18.10;;;9.93;;
3959;SDS011;1994;48.640;8.894;2023-03-05T10:07:56;10.43;;;7.70;;
3959;SDS011;1994;48.640;8.894;2023-03-05T10:10:42;33.77;;;12.67;;
3959;SDS011;1994;48.640;8.894;2023-03-05T10:22:00;16.90;;;8.80;;
3959;SDS011;1994;48.640;8.894;2023-03-05T10:27:42;16.63;;;9.10;;
3959;SDS011;1994;48.640;8.894;2023-03-05T10:30:31;17.30;;;8.73;;
3959;SDS011;1994;48.640;8.894;2023-03-05T10:33:50;11.93;;;8.00;;
3959;SDS011;1994;48.640;8.894;2023-03-05T10:45:56;29.27;;;13.60;;
3959;SDS011;1994;48.640;8.894;2023-03-05T10:50:55;16.17;;;10.37;;
3959;SDS011;1994;48.640;8.894;2023-03-05T10:53:37;17.50;;;9.67;;
3959;SDS011;1994;48.640;8.894;2023-03-05T10:56:33;16.07;;;8.40;;
3959;SDS011;1994;48.640;8.894;2023-03-05T10:59:00;14.03;;;7.43;;
3959;SDS011;1994;48.640;8.894;2023-03-05T11:01:27;11.63;;;7.30;;
3959;SDS011;1994;48.640;8.894;2023-03-05T11:04:05;14.53;;;7.60;;
3959;SDS011;1994;48.640;8.894;2023-03-05T11:06:49;13.87;;;7.37;;
3959;SDS011;1994;48.640;8.894;2023-03-05T11:09:28;9.40;;;6.50;;
3959;SDS011;1994;48.640;8.894;2023-03-05T11:14:29;15.93;;;7.90;;
3959;SDS011;1994;48.640;8.894;2023-03-05T11:17:00;12.63;;;7.50;;
3959;SDS011;1994;48.640;8.894;2023-03-05T11:19:47;12.90;;;7.03;;
3959;SDS011;1994;48.640;8.894;2023-03-05T11:22:19;12.53;;;7.27;;
3959;SDS011;1994;48.640;8.894;2023-03-05T11:25:33;14.07;;;7.70;;
3959;SDS011;1994;48.640;8.894;2023-03-05T11:30:36;15.67;;;9.67;;
3959;SDS011;1994;48.640;8.894;2023-03-05T11:35:45;13.80;;;8.23;;
3959;SDS011;1994;48.640;8.894;2023-03-05T11:38:20;20.60;;;9.73;;
3959;SDS011;1994;48.640;8.894;2023-03-05T11:40:48;14.53;;;7.87;;
3959;SDS011;1994;48.640;8.894;2023-03-05T11:43:17;15.90;;;8.53;;
3959;SDS011;1994;48.640;8.894;2023-03-05T11:45:46;10.90;;;7.47;;
3959;SDS011;1994;48.640;8.894;2023-03-05T11:48:33;13.20;;;7.60;;
3959;SDS011;1994;48.640;8.894;2023-03-05T11:51:06;18.70;;;8.23;;
3959;SDS011;1994;48.640;8.894;2023-03-05T11:53:44;11.13;;;7.30;;
3959;SDS011;1994;48.640;8.894;2023-03-05T11:56:32;10.93;;;7.37;;
3959;SDS011;1994;48.640;8.894;2023-03-05T11:59:16;12.40;;;8.10;;
3959;SDS011;1994;48.640;8.894;2023-03-05T12:01:57;14.40;;;6.57;;
3959;SDS011;1994;48.640;8.894;2023-03-05T12:04:23;15.10;;;7.50;;
3959;SDS011;1994;48.640;8.894;2023-03-05T12:06:51;13.70;;;7.17;;
3959;SDS011;1994;48.640;8.894;2023-03-05T12:09:25;15.33;;;8.50;;
3959;SDS011;1994;48.640;8.894;2023-03-05T12:12:25;13.23;;;7.60;;
3959;SDS011;1994;48.640;8.894;2023-03-05T12:15:02;9.77;;;7.10;;
3959;SDS011;1994;48.640;8.894;2023-03-05T12:20:16;56.33;;;29.77;;
3959;SDS011;1994;48.640;8.894;2023-03-05T12:23:25;26.73;;;14.40;;
3959;SDS011;1994;48.640;8.894;2023-03-05T12:25:56;14.93;;;8.13;;
3959;SDS011;1994;48.640;8.894;2023-03-05T12:30:59;19.77;;;12.07;;
3959;SDS011;1994;48.640;8.894;2023-03-05T12:33:38;23.37;;;11.27;;
3959;SDS011;1994;48.640;8.894;2023-03-05T12:38:46;19.50;;;9.37;;
3959;SDS011;1994;48.640;8.894;2023-03-05T12:46:29;14.13;;;7.90;;
3959;SDS011;1994;48.640;8.894;2023-03-05T12:51:53;18.90;;;10.10;;
3959;SDS011;1994;48.640;8.894;2023-03-05T12:54:31;25.80;;;10.63;;
3959;SDS011;1994;48.640;8.894;2023-03-05T13:00:13;14.57;;;9.00;;
3959;SDS011;1994;48.640;8.894;2023-03-05T13:02:50;18.77;;;8.87;;
3959;SDS011;1994;48.640;8.894;2023-03-05T13:05:33;21.00;;;9.77;;
3959;SDS011;1994;48.640;8.894;2023-03-05T13:10:53;23.07;;;10.90;;
3959;SDS011;1994;48.640;8.894;2023-03-05T13:13:41;15.77;;;8.50;;
3959;SDS011;1994;48.640;8.894;2023-03-05T13:16:16;16.23;;;9.37;;
3959;SDS011;1994;48.640;8.894;2023-03-05T13:18:51;15.77;;;9.97;;
3959;SDS011;1994;48.640;8.894;2023-03-05T13:21:19;17.23;;;8.93;;
3959;SDS011;1994;48.640;8.894;2023-03-05T13:24:01;16.03;;;9.47;;
3959;SDS011;1994;48.640;8.894;2023-03-05T13:26:38;24.27;;;10.30;;
3959;SDS011;1994;48.640;8.894;2023-03-05T13:31:45;21.43;;;11.03;;
3959;SDS011;1994;48.640;8.894;2023-03-05T13:37:03;15.47;;;8.73;;
3959;SDS011;1994;48.640;8.894;2023-03-05T13:39:46;15.50;;;8.90;;
3959;SDS011;1994;48.640;8.894;2023-03-05T13:42:14;23.50;;;9.97;;
3959;SDS011;1994;48.640;8.894;2023-03-05T13:52:50;14.83;;;8.20;;
3959;SDS011;1994;48.640;8.894;2023-03-05T13:55:17;14.27;;;8.87;;
3959;SDS011;1994;48.640;8.894;2023-03-05T13:57:45;15.37;;;7.47;;
3959;SDS011;1994;48.640;8.894;2023-03-05T14:00:25;15.00;;;8.20;;
3959;SDS011;1994;48.640;8.894;2023-03-05T14:03:08;15.47;;;8.77;;
3959;SDS011;1994;48.640;8.894;2023-03-05T14:06:00;15.70;;;8.97;;
3959;SDS011;1994;48.640;8.894;2023-03-05T14:08:31;14.33;;;8.20;;
3959;SDS011;1994;48.640;8.894;2023-03-05T14:10:57;18.53;;;8.40;;
3959;SDS011;1994;48.640;8.894;2023-03-05T14:13:34;18.50;;;8.47;;
3959;SDS011;1994;48.640;8.894;2023-03-05T14:16:05;14.93;;;7.90;;
3959;SDS011;1994;48.640;8.894;2023-03-05T14:18:37;12.80;;;7.83;;
3959;SDS011;1994;48.640;8.894;2023-03-05T14:21:15;12.70;;;8.30;;
3959;SDS011;1994;48.640;8.894;2023-03-05T14:23:42;16.90;;;8.20;;
3959;SDS011;1994;48.640;8.894;2023-03-05T14:26:29;13.77;;;8.90;;
3959;SDS011;1994;48.640;8.894;2023-03-05T14:29:02;14.50;;;7.90;;
3959;SDS011;1994;48.640;8.894;2023-03-05T14:35:00;20.57;;;9.10;;
3959;SDS011;1994;48.640;8.894;2023-03-05T14:37:39;18.73;;;7.73;;
3959;SDS011;1994;48.640;8.894;2023-03-05T14:47:41;24.83;;;11.40;;
3959;SDS011;1994;48.640;8.894;2023-03-05T14:50:08;17.00;;;11.60;;
3959;SDS011;1994;48.640;8.894;2023-03-05T14:52:50;15.47;;;8.53;;
3959;SDS011;1994;48.640;8.894;2023-03-05T14:55:23;15.00;;;7.73;;
3959;SDS011;1994;48.640;8.894;2023-03-05T14:57:56;15.67;;;7.60;;
3959;SDS011;1994;48.640;8.894;2023-03-05T15:00:31;16.63;;;8.97;;
3959;SDS011;1994;48.640;8.894;2023-03-05T15:02:57;14.80;;;8.23;;
3959;SDS011;1994;48.640;8.894;2023-03-05T15:05:23;13.33;;;7.57;;
3959;SDS011;1994;48.640;8.894;2023-03-05T15:07:51;11.53;;;7.13;;
3959;SDS011;1994;48.640;8.894;2023-03-05T15:10:18;18.73;;;9.07;;
3959;SDS011;1994;48.640;8.894;2023-03-05T15:12:48;12.40;;;8.37;;
3959;SDS011;1994;48.640;8.894;2023-03-05T15:15:15;13.50;;;6.87;;
3959;SDS011;1994;48.640;8.894;2023-03-05T15:17:44;15.00;;;7.50;;
3959;SDS011;1994;48.640;8.894;2023-03-05T15:20:17;11.80;;;8.23;;
3959;SDS011;1994;48.640;8.894;2023-03-05T15:22:47;17.97;;;10.60;;
3959;SDS011;1994;48.640;8.894;2023-03-05T15:25:13;14.60;;;8.70;;
3959;SDS011;1994;48.640;8.894;2023-03-05T15:27:40;11.73;;;7.20;;
3959;SDS011;1994;48.640;8.894;2023-03-05T15:30:11;12.17;;;7.50;;
3959;SDS011;1994;48.640;8.894;2023-03-05T15:32:48;12.60;;;7.30;;
3959;SDS011;1994;48.640;8.894;2023-03-05T15:35:15;15.97;;;7.77;;
3959;SDS011;1994;48.640;8.894;2023-03-05T15:37:41;14.13;;;7.87;;
3959;SDS011;1994;48.640;8.894;2023-03-05T15:40:07;22.63;;;10.03;;
3959;SDS011;1994;48.640;8.894;2023-03-05T15:42:34;18.27;;;9.63;;
3959;SDS011;1994;48.640;8.894;2023-03-05T15:45:02;20.27;;;10.30;;
3959;SDS011;1994;48.640;8.894;2023-03-05T15:47:29;14.80;;;8.27;;
3959;SDS011;1994;48.640;8.894;2023-03-05T15:49:54;25.67;;;10.63;;
3959;SDS011;1994;48.640;8.894;2023-03-05T15:52:20;19.17;;;9.93;;
3959;SDS011;1994;48.640;8.894;2023-03-05T15:54:46;14.60;;;8.80;;
3959;SDS011;1994;48.640;8.894;2023-03-05T15:57:12;15.80;;;9.37;;
3959;SDS011;1994;48.640;8.894;2023-03-05T15:59:40;16.90;;;9.20;;
3959;SDS011;1994;48.640;8.894;2023-03-05T16:02:06;15.07;;;8.87;;
3959;SDS011;1994;48.640;8.894;2023-03-05T16:04:32;16.73;;;8.77;;
3959;SDS011;1994;48.640;8.894;2023-03-05T16:06:58;18.40;;;9.23;;
3959;SDS011;1994;48.640;8.894;2023-03-05T16:09:28;19.77;;;10.23;;
3959;SDS011;1994;48.640;8.894;2023-03-05T16:12:01;15.80;;;9.77;;
3959;SDS011;1994;48.640;8.894;2023-03-05T16:14:36;17.10;;;9.57;;
3959;SDS011;1994;48.640;8.894;2023-03-05T16:17:02;40.80;;;18.63;;
3959;SDS011;1994;48.640;8.894;2023-03-05T16:19:31;45.47;;;21.10;;
3959;SDS011;1994;48.640;8.894;2023-03-05T16:22:00;43.17;;;16.07;;
3959;SDS011;1994;48.640;8.894;2023-03-05T16:24:26;66.07;;;26.53;;
3959;SDS011;1994;48.640;8.894;2023-03-05T16:26:52;62.10;;;26.90;;
3959;SDS011;1994;48.640;8.894;2023-03-05T16:29:18;24.87;;;13.30;;
3959;SDS011;1994;48.640;8.894;2023-03-05T16:31:45;41.27;;;24.53;;
3959;SDS011;1994;48.640;8.894;2023-03-05T16:34:17;15.27;;;8.77;;
3959;SDS011;1994;48.640;8.894;2023-03-05T16:36:47;17.57;;;9.50;;
3959;SDS011;1994;48.640;8.894;2023-03-05T16:39:16;25.20;;;11.37;;